sensor_id;sensor_type;location;lat;lon;timestamp;P1;durP1;ratioP1;P2;durP2;ratioP2
48550;SDS011;34397;51.176;6.738;2024-03-02T00:00:30;2.67;;;1.20;;
48550;SDS011;34397;51.176;6.738;2024-03-02T00:03:02;1.80;;;0.95;;
48550;SDS011;34397;51.176;6.738;2024-03-02T00:08:07;2.80;;;1.10;;
48550;SDS011;34397;51.176;6.738;2024-03-02T00:10:39;2.08;;;1.10;;
48550;SDS011;34397;51.176;6.738;2024-03-02T00:13:11;2.80;;;1.05;;
48550;SDS011;34397;51.176;6.738;2024-03-02T00:15:47;5.93;;;1.20;;
48550;SDS011;34397;51.176;6.738;2024-03-02T00:18:24;2.25;;;1.20;;
48550;SDS011;34397;51.176;6.738;2024-03-02T00:20:58;1.60;;;0.95;;
48550;SDS011;34397;51.176;6.738;2024-03-02T00:23:33;2.83;;;1.20;;
48550;SDS011;34397;51.176;6.738;2024-03-02T00:26:05;2.70;;;1.20;;
48550;SDS011;34397;51.176;6.738;2024-03-02T00:28:38;2.25;;;0.90;;
48550;SDS011;34397;51.176;6.738;2024-03-02T00:31:15;2.67;;;0.95;;
48550;SDS011;34397;51.176;6.738;2024-03-02T00:33:47;2.72;;;0.90;;
48550;SDS011;34397;51.176;6.738;2024-03-02T00:36:22;2.53;;;1.20;;
48550;SDS011;34397;51.176;6.738;2024-03-02T00:38:59;2.33;;;1.20;;
48550;SDS011;34397;51.176;6.738;2024-03-02T00:41:31;3.05;;;0.90;;
48550;SDS011;34397;51.176;6.738;2024-03-02T00:44:04;2.78;;;1.25;;
48550;SDS011;34397;51.176;6.738;2024-03-02T00:46:39;2.25;;;1.00;;
48550;SDS011;34397;51.176;6.738;2024-03-02T00:49:12;2.45;;;1.05;;
48550;SDS011;34397;51.176;6.738;2024-03-02T00:51:51;1.77;;;0.95;;
48550;SDS011;34397;51.176;6.738;2024-03-02T00:54:25;1.95;;;0.90;;
48550;SDS011;34397;51.176;6.738;2024-03-02T00:56:58;1.98;;;1.02;;
48550;SDS011;34397;51.176;6.738;2024-03-02T00:59:31;2.10;;;1.02;;
48550;SDS011;34397;51.176;6.738;2024-03-02T01:02:04;1.95;;;0.80;;
48550;SDS011;34397;51.176;6.738;2024-03-02T01:04:36;2.80;;;0.90;;
48550;SDS011;34397;51.176;6.738;2024-03-02T01:07:08;3.45;;;1.17;;
48550;SDS011;34397;51.176;6.738;2024-03-02T01:09:40;2.08;;;1.10;;
48550;SDS011;34397;51.176;6.738;2024-03-02T01:12:12;3.65;;;0.98;;
48550;SDS011;34397;51.176;6.738;2024-03-02T01:14:44;1.73;;;0.90;;
48550;SDS011;34397;51.176;6.738;2024-03-02T01:17:17;1.80;;;0.95;;
48550;SDS011;34397;51.176;6.738;2024-03-02T01:19:49;1.48;;;1.08;;
48550;SDS011;34397;51.176;6.738;2024-03-02T01:22:20;2.25;;;1.20;;
48550;SDS011;34397;51.176;6.738;2024-03-02T01:24:55;3.55;;;1.23;;
48550;SDS011;34397;51.176;6.738;2024-03-02T01:27:27;2.03;;;1.10;;
48550;SDS011;34397;51.176;6.738;2024-03-02T01:29:59;1.80;;;0.88;;
48550;SDS011;34397;51.176;6.738;2024-03-02T01:32:32;1.98;;;1.00;;
48550;SDS011;34397;51.176;6.738;2024-03-02T01:35:04;2.80;;;1.00;;
48550;SDS011;34397;51.176;6.738;2024-03-02T01:37:37;2.90;;;0.98;;
48550;SDS011;34397;51.176;6.738;2024-03-02T01:40:09;1.98;;;1.10;;
48550;SDS011;34397;51.176;6.738;2024-03-02T01:42:42;2.05;;;0.85;;
48550;SDS011;34397;51.176;6.738;2024-03-02T01:45:14;1.73;;;0.82;;
48550;SDS011;34397;51.176;6.738;2024-03-02T01:47:48;2.25;;;0.70;;
48550;SDS011;34397;51.176;6.738;2024-03-02T01:50:24;1.83;;;0.90;;
48550;SDS011;34397;51.176;6.738;2024-03-02T01:52:58;1.98;;;1.10;;
48550;SDS011;34397;51.176;6.738;2024-03-02T01:55:31;2.50;;;1.05;;
48550;SDS011;34397;51.176;6.738;2024-03-02T01:58:04;2.25;;;0.95;;
48550;SDS011;34397;51.176;6.738;2024-03-02T02:00:36;2.40;;;1.00;;
48550;SDS011;34397;51.176;6.738;2024-03-02T02:03:10;1.20;;;0.70;;
48550;SDS011;34397;51.176;6.738;2024-03-02T02:05:42;1.92;;;1.00;;
48550;SDS011;34397;51.176;6.738;2024-03-02T02:08:14;2.00;;;1.00;;
48550;SDS011;34397;51.176;6.738;2024-03-02T02:10:45;2.08;;;0.90;;
48550;SDS011;34397;51.176;6.738;2024-03-02T02:13:17;1.77;;;0.88;;
48550;SDS011;34397;51.176;6.738;2024-03-02T02:15:49;1.83;;;0.88;;
48550;SDS011;34397;51.176;6.738;2024-03-02T02:18:24;1.50;;;0.90;;
48550;SDS011;34397;51.176;6.738;2024-03-02T02:20:56;4.20;;;0.98;;
48550;SDS011;34397;51.176;6.738;2024-03-02T02:23:29;1.75;;;0.90;;
48550;SDS011;34397;51.176;6.738;2024-03-02T02:26:01;1.85;;;1.00;;
48550;SDS011;34397;51.176;6.738;2024-03-02T02:28:33;3.08;;;1.10;;
48550;SDS011;34397;51.176;6.738;2024-03-02T02:31:05;1.25;;;0.80;;
48550;SDS011;34397;51.176;6.738;2024-03-02T02:33:38;2.22;;;1.00;;
48550;SDS011;34397;51.176;6.738;2024-03-02T02:36:10;1.40;;;1.00;;
48550;SDS011;34397;51.176;6.738;2024-03-02T02:38:44;2.20;;;0.95;;
48550;SDS011;34397;51.176;6.738;2024-03-02T02:41:19;1.33;;;0.88;;
48550;SDS011;34397;51.176;6.738;2024-03-02T02:43:51;2.50;;;1.15;;
48550;SDS011;34397;51.176;6.738;2024-03-02T02:46:23;3.65;;;1.17;;
48550;SDS011;34397;51.176;6.738;2024-03-02T02:48:55;1.85;;;1.05;;
48550;SDS011;34397;51.176;6.738;2024-03-02T02:51:27;1.00;;;0.70;;
48550;SDS011;34397;51.176;6.738;2024-03-02T02:54:00;2.38;;;0.93;;
48550;SDS011;34397;51.176;6.738;2024-03-02T02:56:32;2.28;;;1.05;;
48550;SDS011;34397;51.176;6.738;2024-03-02T02:59:04;3.58;;;0.90;;
48550;SDS011;34397;51.176;6.738;2024-03-02T03:01:35;1.63;;;0.90;;
48550;SDS011;34397;51.176;6.738;2024-03-02T03:04:07;2.17;;;1.00;;
48550;SDS011;34397;51.176;6.738;2024-03-02T03:06:39;2.40;;;0.70;;
48550;SDS011;34397;51.176;6.738;2024-03-02T03:09:12;2.42;;;1.00;;
48550;SDS011;34397;51.176;6.738;2024-03-02T03:11:44;1.92;;;0.90;;
48550;SDS011;34397;51.176;6.738;2024-03-02T03:14:16;1.88;;;1.00;;
48550;SDS011;34397;51.176;6.738;2024-03-02T03:16:48;1.02;;;0.80;;
48550;SDS011;34397;51.176;6.738;2024-03-02T03:19:20;2.40;;;0.95;;
48550;SDS011;34397;51.176;6.738;2024-03-02T03:21:52;1.48;;;0.90;;
48550;SDS011;34397;51.176;6.738;2024-03-02T03:24:25;3.30;;;1.10;;
48550;SDS011;34397;51.176;6.738;2024-03-02T03:26:57;1.85;;;0.88;;
48550;SDS011;34397;51.176;6.738;2024-03-02T03:29:29;2.25;;;1.05;;
48550;SDS011;34397;51.176;6.738;2024-03-02T03:32:01;1.52;;;0.93;;
48550;SDS011;34397;51.176;6.738;2024-03-02T03:34:34;2.17;;;1.00;;
48550;SDS011;34397;51.176;6.738;2024-03-02T03:37:06;1.40;;;0.77;;
48550;SDS011;34397;51.176;6.738;2024-03-02T03:39:39;1.70;;;0.98;;
48550;SDS011;34397;51.176;6.738;2024-03-02T03:42:11;2.20;;;0.90;;
48550;SDS011;34397;51.176;6.738;2024-03-02T03:44:43;1.88;;;0.70;;
48550;SDS011;34397;51.176;6.738;2024-03-02T03:47:15;1.80;;;0.90;;
48550;SDS011;34397;51.176;6.738;2024-03-02T03:49:47;4.53;;;1.35;;
48550;SDS011;34397;51.176;6.738;2024-03-02T03:52:19;2.92;;;0.95;;
48550;SDS011;34397;51.176;6.738;2024-03-02T03:54:52;1.33;;;0.93;;
48550;SDS011;34397;51.176;6.738;2024-03-02T03:57:24;2.35;;;1.10;;
48550;SDS011;34397;51.176;6.738;2024-03-02T03:59:56;1.98;;;1.00;;
48550;SDS011;34397;51.176;6.738;2024-03-02T04:02:28;2.10;;;1.02;;
48550;SDS011;34397;51.176;6.738;2024-03-02T04:05:00;2.38;;;0.90;;
48550;SDS011;34397;51.176;6.738;2024-03-02T04:07:35;2.08;;;0.90;;
48550;SDS011;34397;51.176;6.738;2024-03-02T04:10:11;2.88;;;1.00;;
48550;SDS011;34397;51.176;6.738;2024-03-02T04:12:43;2.67;;;1.08;;
48550;SDS011;34397;51.176;6.738;2024-03-02T04:15:15;2.58;;;1.00;;
48550;SDS011;34397;51.176;6.738;2024-03-02T04:17:48;2.33;;;1.02;;
48550;SDS011;34397;51.176;6.738;2024-03-02T04:20:20;2.40;;;0.90;;
48550;SDS011;34397;51.176;6.738;2024-03-02T04:22:52;2.45;;;1.42;;
48550;SDS011;34397;51.176;6.738;2024-03-02T04:25:25;1.90;;;1.00;;
48550;SDS011;34397;51.176;6.738;2024-03-02T04:27:57;2.65;;;1.10;;
48550;SDS011;34397;51.176;6.738;2024-03-02T04:30:29;3.70;;;0.85;;
48550;SDS011;34397;51.176;6.738;2024-03-02T04:33:01;1.25;;;0.70;;
48550;SDS011;34397;51.176;6.738;2024-03-02T04:35:33;2.22;;;0.90;;
48550;SDS011;34397;51.176;6.738;2024-03-02T04:38:05;1.30;;;0.70;;
48550;SDS011;34397;51.176;6.738;2024-03-02T04:40:38;1.40;;;0.80;;
48550;SDS011;34397;51.176;6.738;2024-03-02T04:43:10;2.45;;;1.00;;
48550;SDS011;34397;51.176;6.738;2024-03-02T04:45:45;1.90;;;0.95;;
48550;SDS011;34397;51.176;6.738;2024-03-02T04:48:17;1.58;;;0.73;;
48550;SDS011;34397;51.176;6.738;2024-03-02T04:50:49;2.63;;;0.90;;
48550;SDS011;34397;51.176;6.738;2024-03-02T04:53:20;2.80;;;1.05;;
48550;SDS011;34397;51.176;6.738;2024-03-02T04:55:53;2.00;;;0.93;;
48550;SDS011;34397;51.176;6.738;2024-03-02T04:58:42;2.17;;;0.98;;
48550;SDS011;34397;51.176;6.738;2024-03-02T05:01:14;1.42;;;1.00;;
48550;SDS011;34397;51.176;6.738;2024-03-02T05:03:47;2.40;;;1.20;;
48550;SDS011;34397;51.176;6.738;2024-03-02T05:06:19;4.30;;;0.88;;
48550;SDS011;34397;51.176;6.738;2024-03-02T05:08:51;1.98;;;1.00;;
48550;SDS011;34397;51.176;6.738;2024-03-02T05:11:24;1.90;;;1.00;;
48550;SDS011;34397;51.176;6.738;2024-03-02T05:14:13;2.85;;;1.02;;
48550;SDS011;34397;51.176;6.738;2024-03-02T05:16:45;1.90;;;0.88;;
48550;SDS011;34397;51.176;6.738;2024-03-02T05:19:17;1.80;;;1.00;;
48550;SDS011;34397;51.176;6.738;2024-03-02T05:21:49;1.83;;;0.88;;
48550;SDS011;34397;51.176;6.738;2024-03-02T05:24:21;2.22;;;0.90;;
48550;SDS011;34397;51.176;6.738;2024-03-02T05:26:55;1.77;;;0.93;;
48550;SDS011;34397;51.176;6.738;2024-03-02T05:29:27;2.03;;;1.20;;
48550;SDS011;34397;51.176;6.738;2024-03-02T05:31:59;1.98;;;1.10;;
48550;SDS011;34397;51.176;6.738;2024-03-02T05:34:30;4.30;;;1.10;;
48550;SDS011;34397;51.176;6.738;2024-03-02T05:37:04;2.63;;;1.17;;
48550;SDS011;34397;51.176;6.738;2024-03-02T05:39:37;2.08;;;1.10;;
48550;SDS011;34397;51.176;6.738;2024-03-02T05:42:10;2.10;;;0.93;;
48550;SDS011;34397;51.176;6.738;2024-03-02T05:44:42;2.08;;;1.02;;
48550;SDS011;34397;51.176;6.738;2024-03-02T05:47:14;3.33;;;1.00;;
48550;SDS011;34397;51.176;6.738;2024-03-02T05:49:46;1.65;;;0.95;;
48550;SDS011;34397;51.176;6.738;2024-03-02T05:52:18;1.83;;;1.10;;
48550;SDS011;34397;51.176;6.738;2024-03-02T05:54:50;2.97;;;1.10;;
48550;SDS011;34397;51.176;6.738;2024-03-02T05:57:23;3.00;;;1.15;;
48550;SDS011;34397;51.176;6.738;2024-03-02T06:00:15;1.20;;;0.85;;
48550;SDS011;34397;51.176;6.738;2024-03-02T06:02:48;4.25;;;1.13;;
48550;SDS011;34397;51.176;6.738;2024-03-02T06:05:19;2.05;;;1.10;;
48550;SDS011;34397;51.176;6.738;2024-03-02T06:07:51;3.10;;;1.20;;
48550;SDS011;34397;51.176;6.738;2024-03-02T06:10:23;3.10;;;1.10;;
48550;SDS011;34397;51.176;6.738;2024-03-02T06:12:56;2.15;;;1.10;;
48550;SDS011;34397;51.176;6.738;2024-03-02T06:15:29;2.67;;;1.10;;
48550;SDS011;34397;51.176;6.738;2024-03-02T06:18:01;2.65;;;1.30;;
48550;SDS011;34397;51.176;6.738;2024-03-02T06:20:33;2.08;;;1.30;;
48550;SDS011;34397;51.176;6.738;2024-03-02T06:23:07;3.40;;;1.10;;
48550;SDS011;34397;51.176;6.738;2024-03-02T06:25:38;2.95;;;1.30;;
48550;SDS011;34397;51.176;6.738;2024-03-02T06:28:12;2.70;;;1.10;;
48550;SDS011;34397;51.176;6.738;2024-03-02T06:30:45;2.55;;;1.05;;
48550;SDS011;34397;51.176;6.738;2024-03-02T06:33:17;1.67;;;1.10;;
48550;SDS011;34397;51.176;6.738;2024-03-02T06:35:49;1.63;;;1.02;;
48550;SDS011;34397;51.176;6.738;2024-03-02T06:38:21;2.95;;;1.20;;
48550;SDS011;34397;51.176;6.738;2024-03-02T06:40:53;2.40;;;1.30;;
48550;SDS011;34397;51.176;6.738;2024-03-02T06:43:26;3.92;;;1.25;;
48550;SDS011;34397;51.176;6.738;2024-03-02T06:45:58;1.88;;;1.30;;
48550;SDS011;34397;51.176;6.738;2024-03-02T06:48:31;3.22;;;1.02;;
48550;SDS011;34397;51.176;6.738;2024-03-02T06:51:03;3.05;;;1.20;;
48550;SDS011;34397;51.176;6.738;2024-03-02T06:53:35;2.47;;;0.90;;
48550;SDS011;34397;51.176;6.738;2024-03-02T06:56:07;3.58;;;1.38;;
48550;SDS011;34397;51.176;6.738;2024-03-02T06:58:41;1.98;;;1.25;;
48550;SDS011;34397;51.176;6.738;2024-03-02T07:01:13;4.35;;;1.30;;
48550;SDS011;34397;51.176;6.738;2024-03-02T07:03:45;2.08;;;1.13;;
48550;SDS011;34397;51.176;6.738;2024-03-02T07:06:17;1.67;;;1.08;;
48550;SDS011;34397;51.176;6.738;2024-03-02T07:08:48;3.90;;;1.40;;
48550;SDS011;34397;51.176;6.738;2024-03-02T07:11:20;4.07;;;1.45;;
48550;SDS011;34397;51.176;6.738;2024-03-02T07:13:54;2.13;;;1.45;;
48550;SDS011;34397;51.176;6.738;2024-03-02T07:16:30;2.28;;;1.35;;
48550;SDS011;34397;51.176;6.738;2024-03-02T07:19:03;3.42;;;1.75;;
48550;SDS011;34397;51.176;6.738;2024-03-02T07:21:35;2.80;;;1.40;;
48550;SDS011;34397;51.176;6.738;2024-03-02T07:24:07;4.63;;;1.50;;
48550;SDS011;34397;51.176;6.738;2024-03-02T07:26:43;3.38;;;1.52;;
48550;SDS011;34397;51.176;6.738;2024-03-02T07:29:16;6.40;;;1.88;;
48550;SDS011;34397;51.176;6.738;2024-03-02T07:31:48;3.70;;;1.50;;
48550;SDS011;34397;51.176;6.738;2024-03-02T07:34:20;3.47;;;1.52;;
48550;SDS011;34397;51.176;6.738;2024-03-02T07:36:52;2.40;;;1.40;;
48550;SDS011;34397;51.176;6.738;2024-03-02T07:39:25;2.30;;;1.40;;
48550;SDS011;34397;51.176;6.738;2024-03-02T07:41:57;3.55;;;1.30;;
48550;SDS011;34397;51.176;6.738;2024-03-02T07:44:32;2.20;;;1.40;;
48550;SDS011;34397;51.176;6.738;2024-03-02T07:47:04;2.55;;;1.60;;
48550;SDS011;34397;51.176;6.738;2024-03-02T07:49:37;5.10;;;1.60;;
48550;SDS011;34397;51.176;6.738;2024-03-02T07:52:10;1.95;;;1.40;;
48550;SDS011;34397;51.176;6.738;2024-03-02T07:54:42;4.20;;;1.70;;
48550;SDS011;34397;51.176;6.738;2024-03-02T07:57:14;2.05;;;1.42;;
48550;SDS011;34397;51.176;6.738;2024-03-02T07:59:47;1.92;;;1.27;;
48550;SDS011;34397;51.176;6.738;2024-03-02T08:02:20;3.40;;;1.40;;
48550;SDS011;34397;51.176;6.738;2024-03-02T08:04:52;2.05;;;1.10;;
48550;SDS011;34397;51.176;6.738;2024-03-02T08:07:24;4.13;;;1.50;;
48550;SDS011;34397;51.176;6.738;2024-03-02T08:09:56;1.83;;;1.20;;
48550;SDS011;34397;51.176;6.738;2024-03-02T08:12:28;2.35;;;1.20;;
48550;SDS011;34397;51.176;6.738;2024-03-02T08:17:35;1.50;;;1.27;;
48550;SDS011;34397;51.176;6.738;2024-03-02T08:20:08;4.20;;;1.20;;
48550;SDS011;34397;51.176;6.738;2024-03-02T08:22:41;1.95;;;1.35;;
48550;SDS011;34397;51.176;6.738;2024-03-02T08:25:13;5.75;;;1.13;;
48550;SDS011;34397;51.176;6.738;2024-03-02T08:27:46;1.92;;;0.90;;
48550;SDS011;34397;51.176;6.738;2024-03-02T08:30:19;5.68;;;1.30;;
48550;SDS011;34397;51.176;6.738;2024-03-02T08:32:51;3.60;;;1.00;;
48550;SDS011;34397;51.176;6.738;2024-03-02T08:35:23;1.48;;;0.95;;
48550;SDS011;34397;51.176;6.738;2024-03-02T08:37:55;5.13;;;1.50;;
48550;SDS011;34397;51.176;6.738;2024-03-02T08:40:31;2.00;;;0.90;;
48550;SDS011;34397;51.176;6.738;2024-03-02T08:43:03;4.20;;;0.80;;
48550;SDS011;34397;51.176;6.738;2024-03-02T08:45:36;1.00;;;0.73;;
48550;SDS011;34397;51.176;6.738;2024-03-02T08:48:09;3.42;;;0.90;;
48550;SDS011;34397;51.176;6.738;2024-03-02T08:50:41;3.25;;;0.98;;
48550;SDS011;34397;51.176;6.738;2024-03-02T08:53:13;3.92;;;0.98;;
48550;SDS011;34397;51.176;6.738;2024-03-02T08:55:48;1.52;;;0.88;;
48550;SDS011;34397;51.176;6.738;2024-03-02T08:58:20;1.55;;;0.90;;
48550;SDS011;34397;51.176;6.738;2024-03-02T09:00:53;2.83;;;0.75;;
48550;SDS011;34397;51.176;6.738;2024-03-02T09:03:25;2.67;;;0.90;;
48550;SDS011;34397;51.176;6.738;2024-03-02T09:05:57;1.00;;;0.63;;
48550;SDS011;34397;51.176;6.738;2024-03-02T09:08:29;2.40;;;0.85;;
48550;SDS011;34397;51.176;6.738;2024-03-02T09:11:01;1.55;;;0.70;;
48550;SDS011;34397;51.176;6.738;2024-03-02T09:13:33;1.52;;;0.80;;
48550;SDS011;34397;51.176;6.738;2024-03-02T09:18:41;1.05;;;0.47;;
48550;SDS011;34397;51.176;6.738;2024-03-02T09:21:13;2.83;;;0.60;;
48550;SDS011;34397;51.176;6.738;2024-03-02T09:23:45;1.33;;;0.40;;
48550;SDS011;34397;51.176;6.738;2024-03-02T09:26:18;1.55;;;0.30;;
48550;SDS011;34397;51.176;6.738;2024-03-02T09:28:50;1.05;;;0.50;;
48550;SDS011;34397;51.176;6.738;2024-03-02T09:31:24;3.15;;;0.57;;
48550;SDS011;34397;51.176;6.738;2024-03-02T09:33:56;2.00;;;0.63;;
48550;SDS011;34397;51.176;6.738;2024-03-02T09:36:28;2.25;;;0.55;;
48550;SDS011;34397;51.176;6.738;2024-03-02T09:39:00;2.53;;;0.60;;
48550;SDS011;34397;51.176;6.738;2024-03-02T09:41:33;3.10;;;0.80;;
48550;SDS011;34397;51.176;6.738;2024-03-02T09:44:05;1.35;;;0.70;;
48550;SDS011;34397;51.176;6.738;2024-03-02T09:46:39;1.52;;;0.50;;
48550;SDS011;34397;51.176;6.738;2024-03-02T09:49:13;1.75;;;0.40;;
48550;SDS011;34397;51.176;6.738;2024-03-02T09:51:46;2.15;;;0.50;;
48550;SDS011;34397;51.176;6.738;2024-03-02T09:54:19;2.88;;;0.50;;
48550;SDS011;34397;51.176;6.738;2024-03-02T09:56:51;3.67;;;0.40;;
48550;SDS011;34397;51.176;6.738;2024-03-02T09:59:23;2.42;;;0.50;;
48550;SDS011;34397;51.176;6.738;2024-03-02T10:01:57;2.15;;;0.47;;
48550;SDS011;34397;51.176;6.738;2024-03-02T10:04:30;0.80;;;0.40;;
48550;SDS011;34397;51.176;6.738;2024-03-02T10:07:10;5.90;;;0.70;;
48550;SDS011;34397;51.176;6.738;2024-03-02T10:09:44;1.60;;;0.43;;
48550;SDS011;34397;51.176;6.738;2024-03-02T10:12:18;3.78;;;0.55;;
48550;SDS011;34397;51.176;6.738;2024-03-02T10:14:50;6.25;;;0.88;;
48550;SDS011;34397;51.176;6.738;2024-03-02T10:17:38;2.15;;;0.43;;
48550;SDS011;34397;51.176;6.738;2024-03-02T10:20:22;3.25;;;0.40;;
48550;SDS011;34397;51.176;6.738;2024-03-02T10:22:55;1.60;;;0.50;;
48550;SDS011;34397;51.176;6.738;2024-03-02T10:25:41;3.33;;;0.40;;
48550;SDS011;34397;51.176;6.738;2024-03-02T10:28:13;0.90;;;0.40;;
48550;SDS011;34397;51.176;6.738;2024-03-02T10:30:49;5.68;;;0.50;;
48550;SDS011;34397;51.176;6.738;2024-03-02T10:33:24;1.95;;;0.50;;
48550;SDS011;34397;51.176;6.738;2024-03-02T10:35:56;1.42;;;0.38;;
48550;SDS011;34397;51.176;6.738;2024-03-02T10:38:29;3.67;;;0.40;;
48550;SDS011;34397;51.176;6.738;2024-03-02T10:41:01;2.97;;;0.68;;
48550;SDS011;34397;51.176;6.738;2024-03-02T10:43:34;1.50;;;0.50;;
48550;SDS011;34397;51.176;6.738;2024-03-02T10:46:06;2.17;;;0.30;;
48550;SDS011;34397;51.176;6.738;2024-03-02T10:48:40;1.55;;;0.50;;
48550;SDS011;34397;51.176;6.738;2024-03-02T10:51:13;2.72;;;0.52;;
48550;SDS011;34397;51.176;6.738;2024-03-02T10:53:45;1.98;;;0.43;;
48550;SDS011;34397;51.176;6.738;2024-03-02T10:56:20;1.08;;;0.40;;
48550;SDS011;34397;51.176;6.738;2024-03-02T10:59:01;2.78;;;0.93;;
48550;SDS011;34397;51.176;6.738;2024-03-02T11:01:36;6.03;;;0.85;;
48550;SDS011;34397;51.176;6.738;2024-03-02T11:04:12;1.20;;;0.45;;
48550;SDS011;34397;51.176;6.738;2024-03-02T11:06:48;3.20;;;0.55;;
48550;SDS011;34397;51.176;6.738;2024-03-02T11:09:22;2.05;;;0.50;;
48550;SDS011;34397;51.176;6.738;2024-03-02T11:12:00;1.65;;;0.50;;
48550;SDS011;34397;51.176;6.738;2024-03-02T11:14:37;1.20;;;0.50;;
48550;SDS011;34397;51.176;6.738;2024-03-02T11:17:14;1.90;;;0.45;;
48550;SDS011;34397;51.176;6.738;2024-03-02T11:19:48;1.27;;;0.50;;
48550;SDS011;34397;51.176;6.738;2024-03-02T11:22:21;2.22;;;0.65;;
48550;SDS011;34397;51.176;6.738;2024-03-02T11:24:53;1.52;;;0.73;;
48550;SDS011;34397;51.176;6.738;2024-03-02T11:30:50;2.85;;;0.80;;
48550;SDS011;34397;51.176;6.738;2024-03-02T11:33:24;1.80;;;0.80;;
48550;SDS011;34397;51.176;6.738;2024-03-02T11:35:58;2.13;;;0.80;;
48550;SDS011;34397;51.176;6.738;2024-03-02T11:38:34;1.73;;;0.98;;
48550;SDS011;34397;51.176;6.738;2024-03-02T11:41:07;2.75;;;0.80;;
48550;SDS011;34397;51.176;6.738;2024-03-02T11:43:40;2.15;;;0.90;;
48550;SDS011;34397;51.176;6.738;2024-03-02T11:46:14;2.40;;;1.00;;
48550;SDS011;34397;51.176;6.738;2024-03-02T11:48:46;2.05;;;1.00;;
48550;SDS011;34397;51.176;6.738;2024-03-02T11:51:19;1.15;;;0.90;;
48550;SDS011;34397;51.176;6.738;2024-03-02T11:53:53;1.95;;;0.80;;
48550;SDS011;34397;51.176;6.738;2024-03-02T11:56:29;1.67;;;0.90;;
48550;SDS011;34397;51.176;6.738;2024-03-02T11:59:03;1.48;;;0.93;;
48550;SDS011;34397;51.176;6.738;2024-03-02T12:01:35;1.92;;;0.88;;
48550;SDS011;34397;51.176;6.738;2024-03-02T12:04:07;1.80;;;0.60;;
48550;SDS011;34397;51.176;6.738;2024-03-02T12:09:20;1.48;;;0.60;;
48550;SDS011;34397;51.176;6.738;2024-03-02T12:12:03;1.80;;;0.40;;
48550;SDS011;34397;51.176;6.738;2024-03-02T12:14:36;1.98;;;0.70;;
48550;SDS011;34397;51.176;6.738;2024-03-02T12:17:09;1.67;;;0.70;;
48550;SDS011;34397;51.176;6.738;2024-03-02T12:19:41;1.85;;;0.75;;
48550;SDS011;34397;51.176;6.738;2024-03-02T12:22:15;1.80;;;0.70;;
48550;SDS011;34397;51.176;6.738;2024-03-02T12:24:47;2.20;;;0.70;;
48550;SDS011;34397;51.176;6.738;2024-03-02T12:27:19;0.80;;;0.57;;
48550;SDS011;34397;51.176;6.738;2024-03-02T13:15:19;1.60;;;0.90;;
48550;SDS011;34397;51.176;6.738;2024-03-02T13:17:53;4.78;;;0.80;;
48550;SDS011;34397;51.176;6.738;2024-03-02T13:20:29;1.25;;;0.60;;
48550;SDS011;34397;51.176;6.738;2024-03-02T13:23:02;1.67;;;0.63;;
48550;SDS011;34397;51.176;6.738;2024-03-02T13:25:34;1.95;;;0.60;;
48550;SDS011;34397;51.176;6.738;2024-03-02T13:28:06;1.10;;;0.60;;
48550;SDS011;34397;51.176;6.738;2024-03-02T13:30:38;0.63;;;0.50;;
48550;SDS011;34397;51.176;6.738;2024-03-02T13:35:45;1.45;;;0.70;;
48550;SDS011;34397;51.176;6.738;2024-03-02T13:38:17;1.10;;;0.55;;
48550;SDS011;34397;51.176;6.738;2024-03-02T13:40:49;1.45;;;0.60;;
48550;SDS011;34397;51.176;6.738;2024-03-02T13:43:22;2.17;;;0.60;;
48550;SDS011;34397;51.176;6.738;2024-03-02T13:45:54;1.23;;;0.55;;
48550;SDS011;34397;51.176;6.738;2024-03-02T13:48:27;1.10;;;0.50;;
48550;SDS011;34397;51.176;6.738;2024-03-02T13:51:00;1.02;;;0.50;;
48550;SDS011;34397;51.176;6.738;2024-03-02T13:53:35;1.08;;;0.50;;
48550;SDS011;34397;51.176;6.738;2024-03-02T13:56:07;1.48;;;0.60;;
48550;SDS011;34397;51.176;6.738;2024-03-02T13:58:39;1.90;;;0.70;;
48550;SDS011;34397;51.176;6.738;2024-03-02T14:01:11;2.38;;;0.60;;
48550;SDS011;34397;51.176;6.738;2024-03-02T14:03:44;1.00;;;0.57;;
48550;SDS011;34397;51.176;6.738;2024-03-02T14:06:17;1.02;;;0.60;;
48550;SDS011;34397;51.176;6.738;2024-03-02T14:08:49;1.05;;;0.60;;
48550;SDS011;34397;51.176;6.738;2024-03-02T14:11:21;0.98;;;0.70;;
48550;SDS011;34397;51.176;6.738;2024-03-02T14:13:52;1.20;;;0.60;;
48550;SDS011;34397;51.176;6.738;2024-03-02T14:16:24;1.23;;;0.82;;
48550;SDS011;34397;51.176;6.738;2024-03-02T14:18:58;1.70;;;0.65;;
48550;SDS011;34397;51.176;6.738;2024-03-02T14:21:30;2.22;;;0.50;;
48550;SDS011;34397;51.176;6.738;2024-03-02T14:24:02;2.30;;;0.77;;
48550;SDS011;34397;51.176;6.738;2024-03-02T14:26:34;0.85;;;0.60;;
48550;SDS011;34397;51.176;6.738;2024-03-02T14:29:07;0.68;;;0.50;;
48550;SDS011;34397;51.176;6.738;2024-03-02T14:31:39;0.80;;;0.52;;
48550;SDS011;34397;51.176;6.738;2024-03-02T14:34:12;2.13;;;0.68;;
48550;SDS011;34397;51.176;6.738;2024-03-02T14:36:44;0.93;;;0.60;;
48550;SDS011;34397;51.176;6.738;2024-03-02T14:39:16;1.65;;;0.63;;
48550;SDS011;34397;51.176;6.738;2024-03-02T14:41:49;0.90;;;0.60;;
48550;SDS011;34397;51.176;6.738;2024-03-02T14:44:21;0.65;;;0.40;;
48550;SDS011;34397;51.176;6.738;2024-03-02T14:46:53;1.15;;;0.60;;
48550;SDS011;34397;51.176;6.738;2024-03-02T14:49:26;1.08;;;0.50;;
48550;SDS011;34397;51.176;6.738;2024-03-02T14:51:58;0.60;;;0.40;;
48550;SDS011;34397;51.176;6.738;2024-03-02T14:54:30;0.70;;;0.38;;
48550;SDS011;34397;51.176;6.738;2024-03-02T14:57:02;1.15;;;0.50;;
48550;SDS011;34397;51.176;6.738;2024-03-02T14:59:35;0.65;;;0.30;;
48550;SDS011;34397;51.176;6.738;2024-03-02T15:02:07;2.70;;;0.55;;
48550;SDS011;34397;51.176;6.738;2024-03-02T15:04:41;0.63;;;0.40;;
48550;SDS011;34397;51.176;6.738;2024-03-02T15:07:14;1.48;;;0.60;;
48550;SDS011;34397;51.176;6.738;2024-03-02T15:12:18;1.40;;;0.60;;
48550;SDS011;34397;51.176;6.738;2024-03-02T15:14:50;1.27;;;0.60;;
48550;SDS011;34397;51.176;6.738;2024-03-02T15:17:22;1.48;;;0.60;;
48550;SDS011;34397;51.176;6.738;2024-03-02T15:19:56;1.00;;;0.70;;
48550;SDS011;34397;51.176;6.738;2024-03-02T15:22:28;1.08;;;0.50;;
48550;SDS011;34397;51.176;6.738;2024-03-02T15:25:00;1.67;;;0.68;;
48550;SDS011;34397;51.176;6.738;2024-03-02T15:27:32;1.08;;;0.55;;
48550;SDS011;34397;51.176;6.738;2024-03-02T15:30:04;1.95;;;0.68;;
48550;SDS011;34397;51.176;6.738;2024-03-02T15:32:37;1.85;;;0.73;;
48550;SDS011;34397;51.176;6.738;2024-03-02T15:35:10;1.85;;;0.80;;
48550;SDS011;34397;51.176;6.738;2024-03-02T15:37:42;0.70;;;0.50;;
48550;SDS011;34397;51.176;6.738;2024-03-02T15:40:14;0.90;;;0.50;;
48550;SDS011;34397;51.176;6.738;2024-03-02T15:42:46;1.20;;;0.60;;
48550;SDS011;34397;51.176;6.738;2024-03-02T15:45:18;1.85;;;0.60;;
48550;SDS011;34397;51.176;6.738;2024-03-02T15:47:50;1.90;;;0.98;;
48550;SDS011;34397;51.176;6.738;2024-03-02T15:50:23;1.23;;;0.73;;
48550;SDS011;34397;51.176;6.738;2024-03-02T15:52:55;1.75;;;0.80;;
48550;SDS011;34397;51.176;6.738;2024-03-02T15:55:32;0.95;;;0.68;;
48550;SDS011;34397;51.176;6.738;2024-03-02T15:58:05;1.02;;;0.70;;
48550;SDS011;34397;51.176;6.738;2024-03-02T16:00:37;2.28;;;0.95;;
48550;SDS011;34397;51.176;6.738;2024-03-02T16:03:09;1.80;;;0.73;;
48550;SDS011;34397;51.176;6.738;2024-03-02T16:05:43;1.60;;;0.70;;
48550;SDS011;34397;51.176;6.738;2024-03-02T16:08:14;1.13;;;0.55;;
48550;SDS011;34397;51.176;6.738;2024-03-02T16:10:46;2.53;;;0.85;;
48550;SDS011;34397;51.176;6.738;2024-03-02T16:13:18;1.20;;;0.60;;
48550;SDS011;34397;51.176;6.738;2024-03-02T16:15:50;2.17;;;0.70;;
48550;SDS011;34397;51.176;6.738;2024-03-02T16:18:22;0.93;;;0.50;;
48550;SDS011;34397;51.176;6.738;2024-03-02T16:20:55;1.88;;;0.80;;
48550;SDS011;34397;51.176;6.738;2024-03-02T16:23:27;1.80;;;0.70;;
48550;SDS011;34397;51.176;6.738;2024-03-02T16:25:59;1.48;;;0.63;;